createdAt,value
2024-03-12T00:00:03.162Z,-0.04
2024-03-12T00:05:21.625Z,-0.09
2024-03-12T00:10:28.626Z,-0.14
2024-03-12T00:15:42.415Z,-0.19
2024-03-12T00:26:04.839Z,-0.19
2024-03-12T00:31:16.240Z,-0.15
2024-03-12T00:36:38.516Z,-0.12
2024-03-12T00:41:46.007Z,-0.16
2024-03-12T00:47:02.571Z,-0.19
2024-03-12T00:52:35.587Z,-0.13
2024-03-12T00:57:54.022Z,-0.21
2024-03-12T01:03:16.638Z,-0.23
2024-03-12T01:08:26.477Z,-0.26
2024-03-12T01:13:43.609Z,-0.26
2024-03-12T01:24:10.171Z,-0.25
2024-03-12T01:29:38.728Z,-0.26
2024-03-12T01:34:46.215Z,-0.37
2024-03-12T01:39:57.017Z,-0.32
2024-03-12T01:45:10.763Z,-0.39
2024-03-12T01:55:56.007Z,-0.36
2024-03-12T02:01:04.421Z,-0.43
2024-03-12T02:06:30.077Z,-0.41
2024-03-12T02:11:46.996Z,-0.39
2024-03-12T02:16:59.925Z,-0.44
2024-03-12T02:27:57.979Z,-0.44
2024-03-12T02:33:10.257Z,-0.40
2024-03-12T02:43:52.664Z,-0.42
2024-03-12T02:49:05.205Z,-0.33
2024-03-12T02:59:29.938Z,-0.38
2024-03-12T03:04:41.246Z,-0.34
2024-03-12T03:09:50.510Z,-0.43
2024-03-12T03:15:01.539Z,-0.41
2024-03-12T03:20:16.232Z,-0.42
2024-03-12T03:25:37.154Z,-0.45
2024-03-12T03:30:49.613Z,-0.47
2024-03-12T03:36:10.619Z,-0.50
2024-03-12T03:41:45.373Z,-0.38
2024-03-12T03:47:03.272Z,-0.44
2024-03-12T03:52:11.995Z,-0.39
2024-03-12T03:57:21.270Z,-0.44
2024-03-12T04:02:35.178Z,-0.44
2024-03-12T04:08:04.671Z,-0.41
2024-03-12T04:13:12.445Z,-0.39
2024-03-12T04:18:23.822Z,-0.36
2024-03-12T04:23:41.258Z,-0.28
2024-03-12T04:28:49.664Z,-0.21
2024-03-12T04:34:02.216Z,-0.15
2024-03-12T04:39:32.522Z,-0.01
2024-03-12T04:50:24.524Z,-0.01
2024-03-12T04:55:36.588Z,0.00
2024-03-12T05:00:55.877Z,0.15
2024-03-12T05:06:08.731Z,0.06
2024-03-12T05:11:27.280Z,0.13
2024-03-12T05:16:39.444Z,0.42
2024-03-12T05:22:05.320Z,0.44
2024-03-12T05:27:34.333Z,0.38
2024-03-12T05:32:42.572Z,0.54
2024-03-12T05:38:06.605Z,0.58
2024-03-12T05:43:30.654Z,0.78
2024-03-12T05:53:59.176Z,1.03
2024-03-12T05:59:10.851Z,1.22
2024-03-12T06:04:23.955Z,1.50
2024-03-12T06:09:40.344Z,1.74
2024-03-12T06:14:50.008Z,1.72
2024-03-12T06:20:02.211Z,1.80
2024-03-12T06:25:14.848Z,1.84
2024-03-12T06:30:32.185Z,1.89
2024-03-12T06:35:45.113Z,1.85
2024-03-12T06:40:52.922Z,2.01
2024-03-12T06:45:58.620Z,2.45
2024-03-12T06:56:46.606Z,2.29
2024-03-12T07:01:54.833Z,2.43
2024-03-12T07:07:22.662Z,2.78
2024-03-12T07:12:35.630Z,3.10
2024-03-12T07:17:43.976Z,2.88
2024-03-12T07:22:52.857Z,2.97
2024-03-12T07:28:19.937Z,2.98
2024-03-12T07:33:35.036Z,2.45
2024-03-12T07:38:56.964Z,2.22
2024-03-12T07:44:08.082Z,1.97
2024-03-12T07:49:22.883Z,1.57
2024-03-12T07:54:36.453Z,1.38
2024-03-12T07:59:50.264Z,1.55
2024-03-12T08:04:58.543Z,2.18
2024-03-12T08:10:17.122Z,2.62
2024-03-12T08:15:32.550Z,2.98
2024-03-12T08:20:47.868Z,3.17
2024-03-12T08:26:00.618Z,3.43
2024-03-12T08:31:28.438Z,3.65
2024-03-12T08:36:48.095Z,3.63
2024-03-12T08:41:55.569Z,3.94
2024-03-12T08:47:08.225Z,3.68
2024-03-12T08:52:23.919Z,3.60
2024-03-12T08:57:29.668Z,3.20
2024-03-12T09:02:54.679Z,3.24
2024-03-12T09:08:06.700Z,3.03
2024-03-12T09:13:17.271Z,2.90
2024-03-12T09:18:27.815Z,2.88
2024-03-12T09:23:45.237Z,2.93
2024-03-12T09:29:08.347Z,3.44
2024-03-12T09:34:25.817Z,3.24
2024-03-12T09:45:13.700Z,2.98
2024-03-12T09:50:28.981Z,2.97
2024-03-12T10:01:22.800Z,3.01
2024-03-12T10:06:42.488Z,2.55
2024-03-12T10:17:27.553Z,2.68
2024-03-12T10:28:07.589Z,2.76
2024-03-12T10:33:21.857Z,2.81
2024-03-12T10:38:38.633Z,2.87
2024-03-12T10:43:50.473Z,3.04
2024-03-12T10:49:02.968Z,2.92
2024-03-12T10:54:18.423Z,2.89
2024-03-12T10:59:29.074Z,2.95
2024-03-12T11:04:41.043Z,2.97
2024-03-12T11:09:58.770Z,2.89
2024-03-12T11:15:10.792Z,2.91
2024-03-12T11:20:29.640Z,2.88
2024-03-12T11:25:51.182Z,2.97
2024-03-12T11:31:10.191Z,3.01
2024-03-12T11:36:27.835Z,2.94
2024-03-12T11:42:10.628Z,3.06
2024-03-12T11:47:35.501Z,3.21
2024-03-12T11:52:49.373Z,2.66
2024-03-12T11:58:03.651Z,3.18
2024-03-12T12:03:18.175Z,3.21
2024-03-12T12:13:52.321Z,3.10
2024-03-12T12:19:10.580Z,3.17
2024-03-12T12:24:30.651Z,3.17
2024-03-12T12:29:39.146Z,3.13
2024-03-12T12:35:00.385Z,3.18
2024-03-12T12:47:50.603Z,2.76
2024-03-12T12:52:59.956Z,2.94
2024-03-12T12:58:12.854Z,3.06
2024-03-12T13:03:22.200Z,3.16
2024-03-12T13:08:33.499Z,3.04
2024-03-12T13:13:40.653Z,2.88
2024-03-12T13:18:52.841Z,3.07
2024-03-12T13:24:08.283Z,3.05
2024-03-12T13:29:19.243Z,3.08
2024-03-12T13:34:33.631Z,2.87
2024-03-12T13:39:39.794Z,2.72
2024-03-12T13:44:51.940Z,2.82
2024-03-12T13:50:00.606Z,2.61
2024-03-12T13:55:13.179Z,2.76
2024-03-12T14:00:21.213Z,2.90
2024-03-12T14:05:29.953Z,2.95
2024-03-12T14:21:14.506Z,2.74
2024-03-12T14:31:46.204Z,2.42
2024-03-12T14:36:56.277Z,2.57
2024-03-12T14:47:21.861Z,2.65
2024-03-12T14:52:43.390Z,2.55
2024-03-12T14:57:49.991Z,2.35
2024-03-12T15:02:59.361Z,2.12
2024-03-12T15:08:16.621Z,1.61
2024-03-12T15:13:28.250Z,1.24
2024-03-12T15:18:34.267Z,1.44
2024-03-12T15:23:42.984Z,1.32
2024-03-12T15:28:49.763Z,1.14
2024-03-12T15:33:55.134Z,1.07
2024-03-12T15:39:04.669Z,0.94
2024-03-12T15:44:14.359Z,0.82
2024-03-12T15:49:21.673Z,0.78
2024-03-12T15:54:36.838Z,0.69
2024-03-12T15:59:42.795Z,0.71
2024-03-12T16:04:48.676Z,0.87
2024-03-12T16:10:14.267Z,0.91
2024-03-12T16:15:25.617Z,0.57
2024-03-12T16:20:33.453Z,0.46
2024-03-12T16:25:43.426Z,0.40
2024-03-12T16:30:49.519Z,0.34
2024-03-12T16:36:06.050Z,0.36
2024-03-12T16:46:32.042Z,-0.06
2024-03-12T16:51:45.086Z,-0.42
2024-03-12T16:57:05.402Z,-0.74
2024-03-12T17:02:21.923Z,-0.93
2024-03-12T17:07:37.938Z,-0.47
2024-03-12T17:12:52.531Z,-0.41
2024-03-12T17:18:00.952Z,-0.38
2024-03-12T17:23:13.038Z,0.01
2024-03-12T17:28:23.835Z,0.22
2024-03-12T17:33:35.272Z,0.37
2024-03-12T17:38:53.278Z,0.22
2024-03-12T17:44:00.707Z,-0.46
2024-03-12T17:49:08.328Z,-0.24
2024-03-12T17:54:20.609Z,-0.14
2024-03-12T17:59:40.014Z,-0.19
2024-03-12T18:04:46.205Z,-0.23
2024-03-12T18:09:56.129Z,-0.20
2024-03-12T18:15:13.005Z,-0.16
2024-03-12T18:20:24.767Z,-0.32
2024-03-12T18:30:54.144Z,-0.88
2024-03-12T18:36:01.222Z,-1.08
2024-03-12T18:46:34.541Z,-1.26
2024-03-12T18:51:41.049Z,-1.57
2024-03-12T18:56:56.624Z,-1.29
2024-03-12T19:02:12.735Z,-1.35
2024-03-12T19:07:23.451Z,-1.60
2024-03-12T19:12:52.621Z,-1.39
2024-03-12T19:18:08.986Z,-1.41
2024-03-12T19:23:18.154Z,-1.38
2024-03-12T19:28:23.605Z,-1.40
2024-03-12T19:33:34.226Z,-1.37
2024-03-12T19:38:43.415Z,-1.47
2024-03-12T19:44:03.145Z,-1.54
2024-03-12T19:49:14.718Z,-1.66
2024-03-12T19:54:26.861Z,-1.71
2024-03-12T19:59:40.021Z,-1.77
2024-03-12T20:04:47.060Z,-1.83
2024-03-12T20:09:54.470Z,-1.88
2024-03-12T20:15:15.968Z,-1.91
2024-03-12T20:25:41.788Z,-2.31
2024-03-12T20:30:48.993Z,-2.39
2024-03-12T20:36:00.459Z,-2.47
2024-03-12T20:41:10.569Z,-2.56
2024-03-12T20:46:19.117Z,-2.70
2024-03-12T20:51:30.391Z,-2.74
2024-03-12T20:56:39.666Z,-2.80
2024-03-12T21:01:52.584Z,-2.77
2024-03-12T21:07:09.303Z,-2.94
2024-03-12T21:12:27.388Z,-2.79
2024-03-12T21:17:33.685Z,-2.68
2024-03-12T21:22:42.160Z,-2.64
2024-03-12T21:33:20.755Z,-2.58
2024-03-12T21:38:39.948Z,-2.65
2024-03-12T21:43:49.680Z,-2.61
2024-03-12T21:48:57.088Z,-2.52
2024-03-12T21:54:09.281Z,-2.33
2024-03-12T21:59:21.574Z,-2.17
2024-03-12T22:04:28.698Z,-2.39
2024-03-12T22:09:42.155Z,-2.38
2024-03-12T22:14:52.512Z,-2.47
2024-03-12T22:19:59.976Z,-2.59
2024-03-12T22:25:10.065Z,-2.60
2024-03-12T22:30:25.386Z,-2.71
2024-03-12T22:35:33.388Z,-2.69
2024-03-12T22:40:45.152Z,-2.81
2024-03-12T22:45:56.210Z,-2.86
2024-03-12T22:51:12.383Z,-2.81
2024-03-12T22:56:29.032Z,-2.89
2024-03-12T23:01:42.717Z,-2.92
2024-03-12T23:06:50.760Z,-2.84
2024-03-12T23:12:02.061Z,-2.75
2024-03-12T23:17:09.122Z,-2.71
2024-03-12T23:22:16.863Z,-2.66
2024-03-12T23:27:25.690Z,-2.67
2024-03-12T23:32:32.111Z,-2.70
2024-03-12T23:37:39.555Z,-2.66
2024-03-12T23:42:49.261Z,-2.69
2024-03-12T23:47:58.403Z,-2.83
2024-03-12T23:53:11.877Z,-2.79
2024-03-12T23:58:19.536Z,-2.84
